<?xml version="1.0" encoding="UTF-8" standalone="no" ?>
<gpx xmlns="http://www.topografix.com/GPX/1/1" xmlns:xsi="http://www.w3.org/2001/XMLSchema-instance" xsi:schemaLocation="http://www.topografix.com/GPX/1/1 http://www.topografix.com/GPX/1/1/gpx.xsd" version="1.1" creator="VisuGPX - https://www.visugpx.com">
  <metadata>
    <name>Saint Herblain - octobre 2021</name>
  </metadata>
  <trk>
    <name><![CDATA[Saint Herblain - octobre 2021_1]]></name>
    <trkseg>
      <trkpt lat="47.21299" lon="-1.6571">
        <ele>75.7</ele>
        <time>2021-10-09T12:03:05Z</time>
      </trkpt>
      <trkpt lat="47.21298" lon="-1.65707">
        <ele>75.6</ele>
        <time>2021-10-09T12:03:20Z</time>
      </trkpt>
      <trkpt lat="47.21339" lon="-1.65685">
        <ele>75.4</ele>
        <time>2021-10-09T12:03:35Z</time>
      </trkpt>
      <trkpt lat="47.21297" lon="-1.65714">
        <ele>75.4</ele>
        <time>2021-10-09T12:03:51Z</time>
      </trkpt>
      <trkpt lat="47.21257" lon="-1.65762">
        <ele>75.4</ele>
        <time>2021-10-09T12:04:07Z</time>
      </trkpt>
      <trkpt lat="47.21286" lon="-1.65842">
        <ele>75.1</ele>
        <time>2021-10-09T12:04:23Z</time>
      </trkpt>
      <trkpt lat="47.21317" lon="-1.65964">
        <ele>75.2</ele>
        <time>2021-10-09T12:04:38Z</time>
      </trkpt>
      <trkpt lat="47.21374" lon="-1.66145">
        <ele>75.2</ele>
        <time>2021-10-09T12:04:54Z</time>
      </trkpt>
      <trkpt lat="47.21465" lon="-1.66309">
        <ele>57.1</ele>
        <time>2021-10-09T12:05:10Z</time>
      </trkpt>
      <trkpt lat="47.21502" lon="-1.66293">
        <ele>51.9</ele>
        <time>2021-10-09T12:05:25Z</time>
      </trkpt>
      <trkpt lat="47.21516" lon="-1.66268">
        <ele>53.9</ele>
        <time>2021-10-09T12:05:41Z</time>
      </trkpt>
      <trkpt lat="47.21524" lon="-1.66244">
        <ele>51.2</ele>
        <time>2021-10-09T12:05:57Z</time>
      </trkpt>
      <trkpt lat="47.21543" lon="-1.66216">
        <ele>57.6</ele>
        <time>2021-10-09T12:06:12Z</time>
      </trkpt>
      <trkpt lat="47.21577" lon="-1.66192">
        <ele>59.8</ele>
        <time>2021-10-09T12:06:28Z</time>
      </trkpt>
      <trkpt lat="47.21606" lon="-1.66173">
        <ele>54.3</ele>
        <time>2021-10-09T12:06:44Z</time>
      </trkpt>
      <trkpt lat="47.21637" lon="-1.66157">
        <ele>53.1</ele>
        <time>2021-10-09T12:06:59Z</time>
      </trkpt>
      <trkpt lat="47.21675" lon="-1.66146">
        <ele>54</ele>
        <time>2021-10-09T12:07:15Z</time>
      </trkpt>
      <trkpt lat="47.21715" lon="-1.66124">
        <ele>60.4</ele>
        <time>2021-10-09T12:07:31Z</time>
      </trkpt>
      <trkpt lat="47.21755" lon="-1.66225">
        <ele>75.2</ele>
        <time>2021-10-09T12:07:47Z</time>
      </trkpt>
      <trkpt lat="47.218" lon="-1.66274">
        <ele>73.8</ele>
        <time>2021-10-09T12:08:03Z</time>
      </trkpt>
      <trkpt lat="47.21863" lon="-1.66249">
        <ele>67.7</ele>
        <time>2021-10-09T12:08:18Z</time>
      </trkpt>
      <trkpt lat="47.21899" lon="-1.6619">
        <ele>58.8</ele>
        <time>2021-10-09T12:08:33Z</time>
      </trkpt>
      <trkpt lat="47.21946" lon="-1.66131">
        <ele>62.2</ele>
        <time>2021-10-09T12:08:49Z</time>
      </trkpt>
      <trkpt lat="47.21986" lon="-1.66115">
        <ele>67.4</ele>
        <time>2021-10-09T12:09:05Z</time>
      </trkpt>
      <trkpt lat="47.21955" lon="-1.66198">
        <ele>65.7</ele>
        <time>2021-10-09T12:09:21Z</time>
      </trkpt>
      <trkpt lat="47.21912" lon="-1.66265">
        <ele>71.4</ele>
        <time>2021-10-09T12:09:37Z</time>
      </trkpt>
      <trkpt lat="47.2189" lon="-1.66305">
        <ele>75</ele>
        <time>2021-10-09T12:09:52Z</time>
      </trkpt>
      <trkpt lat="47.21857" lon="-1.66348">
        <ele>67.2</ele>
        <time>2021-10-09T12:10:08Z</time>
      </trkpt>
      <trkpt lat="47.21823" lon="-1.6642">
        <ele>73.3</ele>
        <time>2021-10-09T12:10:23Z</time>
      </trkpt>
      <trkpt lat="47.2182" lon="-1.66469">
        <ele>70</ele>
        <time>2021-10-09T12:10:39Z</time>
      </trkpt>
      <trkpt lat="47.21788" lon="-1.66496">
        <ele>73.9</ele>
        <time>2021-10-09T12:10:55Z</time>
      </trkpt>
      <trkpt lat="47.21788" lon="-1.66568">
        <ele>72.8</ele>
        <time>2021-10-09T12:11:11Z</time>
      </trkpt>
      <trkpt lat="47.21822" lon="-1.66627">
        <ele>76.3</ele>
        <time>2021-10-09T12:11:26Z</time>
      </trkpt>
      <trkpt lat="47.21863" lon="-1.66687">
        <ele>82.5</ele>
        <time>2021-10-09T12:11:41Z</time>
      </trkpt>
      <trkpt lat="47.21896" lon="-1.66743">
        <ele>81.4</ele>
        <time>2021-10-09T12:11:57Z</time>
      </trkpt>
      <trkpt lat="47.21901" lon="-1.66761">
        <ele>82.8</ele>
        <time>2021-10-09T12:12:13Z</time>
      </trkpt>
      <trkpt lat="47.219" lon="-1.66762">
        <ele>82.8</ele>
        <time>2021-10-09T12:12:29Z</time>
      </trkpt>
      <trkpt lat="47.219" lon="-1.66763">
        <ele>85.4</ele>
        <time>2021-10-09T12:12:44Z</time>
      </trkpt>
      <trkpt lat="47.21899" lon="-1.66765">
        <ele>83.4</ele>
        <time>2021-10-09T12:13:00Z</time>
      </trkpt>
      <trkpt lat="47.21914" lon="-1.66786">
        <ele>85.3</ele>
        <time>2021-10-09T12:13:16Z</time>
      </trkpt>
      <trkpt lat="47.21876" lon="-1.66838">
        <ele>78.9</ele>
        <time>2021-10-09T12:13:31Z</time>
      </trkpt>
      <trkpt lat="47.2181" lon="-1.66954">
        <ele>69.2</ele>
        <time>2021-10-09T12:13:47Z</time>
      </trkpt>
      <trkpt lat="47.21765" lon="-1.6706">
        <ele>63.8</ele>
        <time>2021-10-09T12:14:03Z</time>
      </trkpt>
      <trkpt lat="47.2178" lon="-1.67155">
        <ele>63</ele>
        <time>2021-10-09T12:14:18Z</time>
      </trkpt>
      <trkpt lat="47.218" lon="-1.67254">
        <ele>64.5</ele>
        <time>2021-10-09T12:14:34Z</time>
      </trkpt>
      <trkpt lat="47.21763" lon="-1.67307">
        <ele>57.5</ele>
        <time>2021-10-09T12:14:49Z</time>
      </trkpt>
      <trkpt lat="47.21736" lon="-1.67372">
        <ele>50.9</ele>
        <time>2021-10-09T12:15:05Z</time>
      </trkpt>
      <trkpt lat="47.21772" lon="-1.67419">
        <ele>46.2</ele>
        <time>2021-10-09T12:15:21Z</time>
      </trkpt>
      <trkpt lat="47.21814" lon="-1.67443">
        <ele>43.4</ele>
        <time>2021-10-09T12:15:37Z</time>
      </trkpt>
      <trkpt lat="47.21869" lon="-1.67443">
        <ele>54.2</ele>
        <time>2021-10-09T12:15:53Z</time>
      </trkpt>
      <trkpt lat="47.21915" lon="-1.67401">
        <ele>44</ele>
        <time>2021-10-09T12:16:09Z</time>
      </trkpt>
      <trkpt lat="47.21981" lon="-1.67396">
        <ele>50.3</ele>
        <time>2021-10-09T12:16:24Z</time>
      </trkpt>
      <trkpt lat="47.22036" lon="-1.67402">
        <ele>44.8</ele>
        <time>2021-10-09T12:16:39Z</time>
      </trkpt>
      <trkpt lat="47.22076" lon="-1.67389">
        <ele>43</ele>
        <time>2021-10-09T12:16:55Z</time>
      </trkpt>
      <trkpt lat="47.22125" lon="-1.6737">
        <ele>42.2</ele>
        <time>2021-10-09T12:17:11Z</time>
      </trkpt>
      <trkpt lat="47.22144" lon="-1.67323">
        <ele>43.2</ele>
        <time>2021-10-09T12:17:27Z</time>
      </trkpt>
      <trkpt lat="47.22136" lon="-1.67263">
        <ele>48.1</ele>
        <time>2021-10-09T12:17:42Z</time>
      </trkpt>
      <trkpt lat="47.22122" lon="-1.67227">
        <ele>51.3</ele>
        <time>2021-10-09T12:17:58Z</time>
      </trkpt>
      <trkpt lat="47.22116" lon="-1.67173">
        <ele>59.9</ele>
        <time>2021-10-09T12:18:13Z</time>
      </trkpt>
      <trkpt lat="47.22117" lon="-1.67119">
        <ele>64.9</ele>
        <time>2021-10-09T12:18:28Z</time>
      </trkpt>
      <trkpt lat="47.22177" lon="-1.6711">
        <ele>59.5</ele>
        <time>2021-10-09T12:18:43Z</time>
      </trkpt>
      <trkpt lat="47.22244" lon="-1.67078">
        <ele>63.3</ele>
        <time>2021-10-09T12:18:59Z</time>
      </trkpt>
      <trkpt lat="47.22293" lon="-1.67055">
        <ele>62.3</ele>
        <time>2021-10-09T12:19:14Z</time>
      </trkpt>
      <trkpt lat="47.22335" lon="-1.67015">
        <ele>58.9</ele>
        <time>2021-10-09T12:19:30Z</time>
      </trkpt>
      <trkpt lat="47.22357" lon="-1.67007">
        <ele>60.3</ele>
        <time>2021-10-09T12:19:46Z</time>
      </trkpt>
      <trkpt lat="47.22415" lon="-1.67124">
        <ele>70</ele>
        <time>2021-10-09T12:20:02Z</time>
      </trkpt>
      <trkpt lat="47.22484" lon="-1.67268">
        <ele>65.7</ele>
        <time>2021-10-09T12:20:18Z</time>
      </trkpt>
      <trkpt lat="47.22516" lon="-1.67368">
        <ele>78.9</ele>
        <time>2021-10-09T12:20:33Z</time>
      </trkpt>
      <trkpt lat="47.22555" lon="-1.67403">
        <ele>79</ele>
        <time>2021-10-09T12:20:48Z</time>
      </trkpt>
      <trkpt lat="47.22616" lon="-1.67403">
        <ele>76.9</ele>
        <time>2021-10-09T12:21:04Z</time>
      </trkpt>
      <trkpt lat="47.22668" lon="-1.67425">
        <ele>73.7</ele>
        <time>2021-10-09T12:21:20Z</time>
      </trkpt>
      <trkpt lat="47.22724" lon="-1.67448">
        <ele>77.8</ele>
        <time>2021-10-09T12:21:35Z</time>
      </trkpt>
      <trkpt lat="47.22765" lon="-1.67491">
        <ele>73.2</ele>
        <time>2021-10-09T12:21:51Z</time>
      </trkpt>
      <trkpt lat="47.22797" lon="-1.67542">
        <ele>82</ele>
        <time>2021-10-09T12:22:06Z</time>
      </trkpt>
      <trkpt lat="47.22813" lon="-1.67614">
        <ele>84.6</ele>
        <time>2021-10-09T12:22:22Z</time>
      </trkpt>
      <trkpt lat="47.22845" lon="-1.67673">
        <ele>84.9</ele>
        <time>2021-10-09T12:22:38Z</time>
      </trkpt>
      <trkpt lat="47.22946" lon="-1.67812">
        <ele>85.4</ele>
        <time>2021-10-09T12:23:21Z</time>
      </trkpt>
      <trkpt lat="47.22991" lon="-1.67865">
        <ele>94.4</ele>
        <time>2021-10-09T12:23:37Z</time>
      </trkpt>
      <trkpt lat="47.23018" lon="-1.67956">
        <ele>99.3</ele>
        <time>2021-10-09T12:23:53Z</time>
      </trkpt>
      <trkpt lat="47.23038" lon="-1.68044">
        <ele>99.5</ele>
        <time>2021-10-09T12:24:08Z</time>
      </trkpt>
      <trkpt lat="47.23092" lon="-1.68081">
        <ele>99.8</ele>
        <time>2021-10-09T12:24:24Z</time>
      </trkpt>
      <trkpt lat="47.23156" lon="-1.68111">
        <ele>96</ele>
        <time>2021-10-09T12:24:39Z</time>
      </trkpt>
      <trkpt lat="47.2322" lon="-1.68121">
        <ele>92.1</ele>
        <time>2021-10-09T12:24:55Z</time>
      </trkpt>
      <trkpt lat="47.23264" lon="-1.68114">
        <ele>89</ele>
        <time>2021-10-09T12:25:10Z</time>
      </trkpt>
      <trkpt lat="47.23302" lon="-1.6815">
        <ele>89.8</ele>
        <time>2021-10-09T12:25:26Z</time>
      </trkpt>
      <trkpt lat="47.2333" lon="-1.68106">
        <ele>89</ele>
        <time>2021-10-09T12:25:42Z</time>
      </trkpt>
      <trkpt lat="47.23352" lon="-1.68061">
        <ele>91</ele>
        <time>2021-10-09T12:25:58Z</time>
      </trkpt>
      <trkpt lat="47.23387" lon="-1.68028">
        <ele>95</ele>
        <time>2021-10-09T12:26:14Z</time>
      </trkpt>
      <trkpt lat="47.23411" lon="-1.67995">
        <ele>90.5</ele>
        <time>2021-10-09T12:26:29Z</time>
      </trkpt>
      <trkpt lat="47.23434" lon="-1.67971">
        <ele>94.7</ele>
        <time>2021-10-09T12:26:45Z</time>
      </trkpt>
      <trkpt lat="47.23448" lon="-1.6794">
        <ele>93.4</ele>
        <time>2021-10-09T12:27:00Z</time>
      </trkpt>
      <trkpt lat="47.23467" lon="-1.67905">
        <ele>91.2</ele>
        <time>2021-10-09T12:27:16Z</time>
      </trkpt>
      <trkpt lat="47.23474" lon="-1.67903">
        <ele>91.6</ele>
        <time>2021-10-09T12:27:31Z</time>
      </trkpt>
      <trkpt lat="47.23486" lon="-1.67873">
        <ele>92.2</ele>
        <time>2021-10-09T12:27:47Z</time>
      </trkpt>
      <trkpt lat="47.23494" lon="-1.67859">
        <ele>94.5</ele>
        <time>2021-10-09T12:28:02Z</time>
      </trkpt>
      <trkpt lat="47.23511" lon="-1.67824">
        <ele>94.4</ele>
        <time>2021-10-09T12:28:18Z</time>
      </trkpt>
      <trkpt lat="47.23527" lon="-1.67791">
        <ele>94.1</ele>
        <time>2021-10-09T12:28:34Z</time>
      </trkpt>
      <trkpt lat="47.23541" lon="-1.67743">
        <ele>101.9</ele>
        <time>2021-10-09T12:28:50Z</time>
      </trkpt>
      <trkpt lat="47.23545" lon="-1.67718">
        <ele>102.2</ele>
        <time>2021-10-09T12:29:06Z</time>
      </trkpt>
      <trkpt lat="47.23547" lon="-1.6772">
        <ele>101.9</ele>
        <time>2021-10-09T12:29:22Z</time>
      </trkpt>
      <trkpt lat="47.23573" lon="-1.6777">
        <ele>98.3</ele>
        <time>2021-10-09T12:29:37Z</time>
      </trkpt>
      <trkpt lat="47.23606" lon="-1.67839">
        <ele>102.3</ele>
        <time>2021-10-09T12:29:52Z</time>
      </trkpt>
      <trkpt lat="47.23638" lon="-1.67925">
        <ele>101.9</ele>
        <time>2021-10-09T12:30:08Z</time>
      </trkpt>
      <trkpt lat="47.23678" lon="-1.67959">
        <ele>102.8</ele>
        <time>2021-10-09T12:30:23Z</time>
      </trkpt>
      <trkpt lat="47.23734" lon="-1.67913">
        <ele>101</ele>
        <time>2021-10-09T12:30:39Z</time>
      </trkpt>
      <trkpt lat="47.23782" lon="-1.67884">
        <ele>97.7</ele>
        <time>2021-10-09T12:30:55Z</time>
      </trkpt>
      <trkpt lat="47.23837" lon="-1.67879">
        <ele>100.9</ele>
        <time>2021-10-09T12:31:10Z</time>
      </trkpt>
      <trkpt lat="47.23884" lon="-1.67875">
        <ele>105</ele>
        <time>2021-10-09T12:31:26Z</time>
      </trkpt>
      <trkpt lat="47.23938" lon="-1.67869">
        <ele>107.5</ele>
        <time>2021-10-09T12:31:41Z</time>
      </trkpt>
      <trkpt lat="47.23998" lon="-1.67893">
        <ele>106.2</ele>
        <time>2021-10-09T12:31:57Z</time>
      </trkpt>
      <trkpt lat="47.24058" lon="-1.67918">
        <ele>105.8</ele>
        <time>2021-10-09T12:32:13Z</time>
      </trkpt>
      <trkpt lat="47.24117" lon="-1.67927">
        <ele>105.5</ele>
        <time>2021-10-09T12:32:28Z</time>
      </trkpt>
      <trkpt lat="47.24172" lon="-1.67912">
        <ele>107</ele>
        <time>2021-10-09T12:32:43Z</time>
      </trkpt>
      <trkpt lat="47.24227" lon="-1.67883">
        <ele>102.9</ele>
        <time>2021-10-09T12:32:59Z</time>
      </trkpt>
      <trkpt lat="47.24286" lon="-1.67853">
        <ele>102.3</ele>
        <time>2021-10-09T12:33:15Z</time>
      </trkpt>
      <trkpt lat="47.2435" lon="-1.67848">
        <ele>102.1</ele>
        <time>2021-10-09T12:33:31Z</time>
      </trkpt>
      <trkpt lat="47.24386" lon="-1.67863">
        <ele>106.3</ele>
        <time>2021-10-09T12:33:47Z</time>
      </trkpt>
      <trkpt lat="47.24416" lon="-1.67912">
        <ele>106.7</ele>
        <time>2021-10-09T12:34:03Z</time>
      </trkpt>
      <trkpt lat="47.24466" lon="-1.67962">
        <ele>101.3</ele>
        <time>2021-10-09T12:34:19Z</time>
      </trkpt>
      <trkpt lat="47.24522" lon="-1.67991">
        <ele>104.8</ele>
        <time>2021-10-09T12:34:35Z</time>
      </trkpt>
      <trkpt lat="47.24561" lon="-1.68021">
        <ele>103.7</ele>
        <time>2021-10-09T12:34:51Z</time>
      </trkpt>
      <trkpt lat="47.2461" lon="-1.68053">
        <ele>100.2</ele>
        <time>2021-10-09T12:35:07Z</time>
      </trkpt>
      <trkpt lat="47.24663" lon="-1.68076">
        <ele>102.5</ele>
        <time>2021-10-09T12:35:23Z</time>
      </trkpt>
      <trkpt lat="47.24692" lon="-1.68142">
        <ele>107.7</ele>
        <time>2021-10-09T12:35:38Z</time>
      </trkpt>
      <trkpt lat="47.24722" lon="-1.68214">
        <ele>108.2</ele>
        <time>2021-10-09T12:35:54Z</time>
      </trkpt>
      <trkpt lat="47.24735" lon="-1.68292">
        <ele>111.9</ele>
        <time>2021-10-09T12:36:10Z</time>
      </trkpt>
      <trkpt lat="47.24761" lon="-1.68362">
        <ele>111.7</ele>
        <time>2021-10-09T12:36:26Z</time>
      </trkpt>
      <trkpt lat="47.2479" lon="-1.68414">
        <ele>114.3</ele>
        <time>2021-10-09T12:36:42Z</time>
      </trkpt>
      <trkpt lat="47.24825" lon="-1.68457">
        <ele>109.3</ele>
        <time>2021-10-09T12:36:57Z</time>
      </trkpt>
      <trkpt lat="47.24897" lon="-1.6846">
        <ele>114.1</ele>
        <time>2021-10-09T12:37:12Z</time>
      </trkpt>
      <trkpt lat="47.24911" lon="-1.68401">
        <ele>106.9</ele>
        <time>2021-10-09T12:37:28Z</time>
      </trkpt>
      <trkpt lat="47.24909" lon="-1.68323">
        <ele>107.1</ele>
        <time>2021-10-09T12:37:43Z</time>
      </trkpt>
      <trkpt lat="47.24897" lon="-1.68251">
        <ele>106.5</ele>
        <time>2021-10-09T12:37:58Z</time>
      </trkpt>
      <trkpt lat="47.2489" lon="-1.68192">
        <ele>108.2</ele>
        <time>2021-10-09T12:38:14Z</time>
      </trkpt>
      <trkpt lat="47.24896" lon="-1.68113">
        <ele>107.9</ele>
        <time>2021-10-09T12:38:30Z</time>
      </trkpt>
      <trkpt lat="47.24896" lon="-1.68022">
        <ele>110.9</ele>
        <time>2021-10-09T12:38:45Z</time>
      </trkpt>
      <trkpt lat="47.24903" lon="-1.67934">
        <ele>112.6</ele>
        <time>2021-10-09T12:39:00Z</time>
      </trkpt>
      <trkpt lat="47.24915" lon="-1.67866">
        <ele>110.3</ele>
        <time>2021-10-09T12:39:16Z</time>
      </trkpt>
      <trkpt lat="47.24986" lon="-1.67846">
        <ele>103.8</ele>
        <time>2021-10-09T12:39:31Z</time>
      </trkpt>
      <trkpt lat="47.25065" lon="-1.67844">
        <ele>101.4</ele>
        <time>2021-10-09T12:39:46Z</time>
      </trkpt>
      <trkpt lat="47.25157" lon="-1.6792">
        <ele>96.4</ele>
        <time>2021-10-09T12:40:02Z</time>
      </trkpt>
      <trkpt lat="47.25199" lon="-1.679">
        <ele>92.1</ele>
        <time>2021-10-09T12:40:18Z</time>
      </trkpt>
      <trkpt lat="47.25238" lon="-1.67812">
        <ele>90</ele>
        <time>2021-10-09T12:40:34Z</time>
      </trkpt>
      <trkpt lat="47.25299" lon="-1.67758">
        <ele>85.2</ele>
        <time>2021-10-09T12:40:50Z</time>
      </trkpt>
      <trkpt lat="47.25303" lon="-1.67664">
        <ele>86.2</ele>
        <time>2021-10-09T12:41:06Z</time>
      </trkpt>
      <trkpt lat="47.2528" lon="-1.67579">
        <ele>85.3</ele>
        <time>2021-10-09T12:41:21Z</time>
      </trkpt>
      <trkpt lat="47.25325" lon="-1.67523">
        <ele>80.4</ele>
        <time>2021-10-09T12:41:36Z</time>
      </trkpt>
      <trkpt lat="47.2537" lon="-1.67433">
        <ele>76.3</ele>
        <time>2021-10-09T12:41:52Z</time>
      </trkpt>
      <trkpt lat="47.254" lon="-1.67431">
        <ele>77.7</ele>
        <time>2021-10-09T12:42:07Z</time>
      </trkpt>
      <trkpt lat="47.25423" lon="-1.67376">
        <ele>77.7</ele>
        <time>2021-10-09T12:42:23Z</time>
      </trkpt>
      <trkpt lat="47.2544" lon="-1.67333">
        <ele>80.9</ele>
        <time>2021-10-09T12:42:39Z</time>
      </trkpt>
      <trkpt lat="47.25469" lon="-1.67355">
        <ele>81.2</ele>
        <time>2021-10-09T12:42:55Z</time>
      </trkpt>
      <trkpt lat="47.25504" lon="-1.6742">
        <ele>87.2</ele>
        <time>2021-10-09T12:43:10Z</time>
      </trkpt>
      <trkpt lat="47.25521" lon="-1.67533">
        <ele>89.9</ele>
        <time>2021-10-09T12:43:25Z</time>
      </trkpt>
      <trkpt lat="47.25548" lon="-1.67667">
        <ele>88.4</ele>
        <time>2021-10-09T12:43:41Z</time>
      </trkpt>
      <trkpt lat="47.25547" lon="-1.67769">
        <ele>84.4</ele>
        <time>2021-10-09T12:43:57Z</time>
      </trkpt>
      <trkpt lat="47.25572" lon="-1.6785">
        <ele>86.7</ele>
        <time>2021-10-09T12:44:12Z</time>
      </trkpt>
      <trkpt lat="47.25578" lon="-1.67935">
        <ele>88.3</ele>
        <time>2021-10-09T12:44:27Z</time>
      </trkpt>
      <trkpt lat="47.25576" lon="-1.68023">
        <ele>85.6</ele>
        <time>2021-10-09T12:44:43Z</time>
      </trkpt>
      <trkpt lat="47.25596" lon="-1.68088">
        <ele>82.7</ele>
        <time>2021-10-09T12:44:59Z</time>
      </trkpt>
      <trkpt lat="47.25618" lon="-1.68162">
        <ele>93.8</ele>
        <time>2021-10-09T12:45:15Z</time>
      </trkpt>
      <trkpt lat="47.25642" lon="-1.68235">
        <ele>82.6</ele>
        <time>2021-10-09T12:45:30Z</time>
      </trkpt>
      <trkpt lat="47.25674" lon="-1.68309">
        <ele>89.3</ele>
        <time>2021-10-09T12:45:46Z</time>
      </trkpt>
      <trkpt lat="47.25685" lon="-1.68365">
        <ele>91.3</ele>
        <time>2021-10-09T12:46:01Z</time>
      </trkpt>
      <trkpt lat="47.25679" lon="-1.68442">
        <ele>91.5</ele>
        <time>2021-10-09T12:46:16Z</time>
      </trkpt>
      <trkpt lat="47.2568" lon="-1.6851">
        <ele>80.2</ele>
        <time>2021-10-09T12:46:32Z</time>
      </trkpt>
      <trkpt lat="47.25678" lon="-1.68583">
        <ele>81.7</ele>
        <time>2021-10-09T12:46:47Z</time>
      </trkpt>
      <trkpt lat="47.25665" lon="-1.68668">
        <ele>87</ele>
        <time>2021-10-09T12:47:03Z</time>
      </trkpt>
      <trkpt lat="47.25677" lon="-1.68741">
        <ele>86.5</ele>
        <time>2021-10-09T12:47:19Z</time>
      </trkpt>
      <trkpt lat="47.25704" lon="-1.68832">
        <ele>94.4</ele>
        <time>2021-10-09T12:47:34Z</time>
      </trkpt>
      <trkpt lat="47.2567" lon="-1.68908">
        <ele>90.8</ele>
        <time>2021-10-09T12:47:57Z</time>
      </trkpt>
      <trkpt lat="47.2561" lon="-1.68966">
        <ele>95.4</ele>
        <time>2021-10-09T12:48:13Z</time>
      </trkpt>
      <trkpt lat="47.25561" lon="-1.69024">
        <ele>97.5</ele>
        <time>2021-10-09T12:48:29Z</time>
      </trkpt>
      <trkpt lat="47.25554" lon="-1.6911">
        <ele>95.1</ele>
        <time>2021-10-09T12:48:45Z</time>
      </trkpt>
      <trkpt lat="47.25573" lon="-1.69199">
        <ele>99.9</ele>
        <time>2021-10-09T12:49:01Z</time>
      </trkpt>
      <trkpt lat="47.25575" lon="-1.69279">
        <ele>93.2</ele>
        <time>2021-10-09T12:49:16Z</time>
      </trkpt>
      <trkpt lat="47.25565" lon="-1.69348">
        <ele>95</ele>
        <time>2021-10-09T12:49:32Z</time>
      </trkpt>
      <trkpt lat="47.2553" lon="-1.69401">
        <ele>93.5</ele>
        <time>2021-10-09T12:49:47Z</time>
      </trkpt>
      <trkpt lat="47.25483" lon="-1.6944">
        <ele>95.2</ele>
        <time>2021-10-09T12:50:03Z</time>
      </trkpt>
      <trkpt lat="47.25469" lon="-1.69505">
        <ele>98.2</ele>
        <time>2021-10-09T12:50:18Z</time>
      </trkpt>
      <trkpt lat="47.25445" lon="-1.69566">
        <ele>98.5</ele>
        <time>2021-10-09T12:50:34Z</time>
      </trkpt>
      <trkpt lat="47.25401" lon="-1.69586">
        <ele>98.6</ele>
        <time>2021-10-09T12:50:50Z</time>
      </trkpt>
      <trkpt lat="47.25353" lon="-1.69571">
        <ele>98</ele>
        <time>2021-10-09T12:51:05Z</time>
      </trkpt>
      <trkpt lat="47.25307" lon="-1.69535">
        <ele>95.4</ele>
        <time>2021-10-09T12:51:21Z</time>
      </trkpt>
      <trkpt lat="47.25259" lon="-1.69491">
        <ele>98.8</ele>
        <time>2021-10-09T12:51:37Z</time>
      </trkpt>
      <trkpt lat="47.25202" lon="-1.69477">
        <ele>102.9</ele>
        <time>2021-10-09T12:51:52Z</time>
      </trkpt>
      <trkpt lat="47.25147" lon="-1.69471">
        <ele>99.5</ele>
        <time>2021-10-09T12:52:08Z</time>
      </trkpt>
      <trkpt lat="47.2511" lon="-1.69476">
        <ele>96.9</ele>
        <time>2021-10-09T12:52:24Z</time>
      </trkpt>
      <trkpt lat="47.25081" lon="-1.69499">
        <ele>94.7</ele>
        <time>2021-10-09T12:52:39Z</time>
      </trkpt>
      <trkpt lat="47.25031" lon="-1.69521">
        <ele>100.7</ele>
        <time>2021-10-09T12:52:55Z</time>
      </trkpt>
      <trkpt lat="47.24985" lon="-1.69543">
        <ele>102.3</ele>
        <time>2021-10-09T12:53:10Z</time>
      </trkpt>
      <trkpt lat="47.24941" lon="-1.69567">
        <ele>97.4</ele>
        <time>2021-10-09T12:53:25Z</time>
      </trkpt>
      <trkpt lat="47.24891" lon="-1.69621">
        <ele>104.7</ele>
        <time>2021-10-09T12:53:41Z</time>
      </trkpt>
      <trkpt lat="47.24874" lon="-1.69679">
        <ele>104.6</ele>
        <time>2021-10-09T12:53:56Z</time>
      </trkpt>
      <trkpt lat="47.24811" lon="-1.69733">
        <ele>99.2</ele>
        <time>2021-10-09T12:54:12Z</time>
      </trkpt>
      <trkpt lat="47.24752" lon="-1.69765">
        <ele>95.5</ele>
        <time>2021-10-09T12:54:28Z</time>
      </trkpt>
      <trkpt lat="47.24693" lon="-1.69827">
        <ele>94.2</ele>
        <time>2021-10-09T12:54:44Z</time>
      </trkpt>
      <trkpt lat="47.24623" lon="-1.69855">
        <ele>94</ele>
        <time>2021-10-09T12:54:59Z</time>
      </trkpt>
      <trkpt lat="47.24566" lon="-1.69858">
        <ele>87</ele>
        <time>2021-10-09T12:55:14Z</time>
      </trkpt>
      <trkpt lat="47.24521" lon="-1.69871">
        <ele>90.4</ele>
        <time>2021-10-09T12:55:29Z</time>
      </trkpt>
      <trkpt lat="47.24495" lon="-1.69888">
        <ele>91.7</ele>
        <time>2021-10-09T12:55:45Z</time>
      </trkpt>
      <trkpt lat="47.24495" lon="-1.69889">
        <ele>94.2</ele>
        <time>2021-10-09T12:56:01Z</time>
      </trkpt>
      <trkpt lat="47.2449" lon="-1.6989">
        <ele>94.5</ele>
        <time>2021-10-09T12:56:16Z</time>
      </trkpt>
      <trkpt lat="47.24461" lon="-1.69963">
        <ele>91.9</ele>
        <time>2021-10-09T12:56:32Z</time>
      </trkpt>
      <trkpt lat="47.24389" lon="-1.70051">
        <ele>90.8</ele>
        <time>2021-10-09T12:56:48Z</time>
      </trkpt>
      <trkpt lat="47.24328" lon="-1.70136">
        <ele>90.5</ele>
        <time>2021-10-09T12:57:03Z</time>
      </trkpt>
      <trkpt lat="47.24265" lon="-1.70196">
        <ele>89.4</ele>
        <time>2021-10-09T12:57:19Z</time>
      </trkpt>
      <trkpt lat="47.24195" lon="-1.70256">
        <ele>88.6</ele>
        <time>2021-10-09T12:57:34Z</time>
      </trkpt>
      <trkpt lat="47.24125" lon="-1.70324">
        <ele>89.5</ele>
        <time>2021-10-09T12:57:50Z</time>
      </trkpt>
      <trkpt lat="47.24125" lon="-1.70455">
        <ele>83.8</ele>
        <time>2021-10-09T12:58:05Z</time>
      </trkpt>
      <trkpt lat="47.24118" lon="-1.70612">
        <ele>74.3</ele>
        <time>2021-10-09T12:58:21Z</time>
      </trkpt>
      <trkpt lat="47.24081" lon="-1.70753">
        <ele>72.4</ele>
        <time>2021-10-09T12:58:36Z</time>
      </trkpt>
      <trkpt lat="47.24069" lon="-1.70886">
        <ele>66.7</ele>
        <time>2021-10-09T12:58:52Z</time>
      </trkpt>
      <trkpt lat="47.24068" lon="-1.70933">
        <ele>67.4</ele>
        <time>2021-10-09T12:59:07Z</time>
      </trkpt>
      <trkpt lat="47.24052" lon="-1.7096">
        <ele>71.5</ele>
        <time>2021-10-09T12:59:23Z</time>
      </trkpt>
      <trkpt lat="47.2401" lon="-1.7102">
        <ele>70.4</ele>
        <time>2021-10-09T12:59:38Z</time>
      </trkpt>
      <trkpt lat="47.23956" lon="-1.71081">
        <ele>75.2</ele>
        <time>2021-10-09T12:59:54Z</time>
      </trkpt>
      <trkpt lat="47.23929" lon="-1.71167">
        <ele>71.3</ele>
        <time>2021-10-09T13:00:09Z</time>
      </trkpt>
      <trkpt lat="47.23906" lon="-1.7125">
        <ele>72.2</ele>
        <time>2021-10-09T13:00:24Z</time>
      </trkpt>
      <trkpt lat="47.23865" lon="-1.71311">
        <ele>70.5</ele>
        <time>2021-10-09T13:00:40Z</time>
      </trkpt>
      <trkpt lat="47.23849" lon="-1.71444">
        <ele>66.8</ele>
        <time>2021-10-09T13:00:56Z</time>
      </trkpt>
      <trkpt lat="47.23827" lon="-1.71555">
        <ele>69.9</ele>
        <time>2021-10-09T13:01:11Z</time>
      </trkpt>
      <trkpt lat="47.23807" lon="-1.71672">
        <ele>62.1</ele>
        <time>2021-10-09T13:01:27Z</time>
      </trkpt>
      <trkpt lat="47.23777" lon="-1.71763">
        <ele>59.2</ele>
        <time>2021-10-09T13:01:43Z</time>
      </trkpt>
      <trkpt lat="47.23747" lon="-1.71761">
        <ele>60.6</ele>
        <time>2021-10-09T13:01:59Z</time>
      </trkpt>
      <trkpt lat="47.23725" lon="-1.71831">
        <ele>56</ele>
        <time>2021-10-09T13:02:14Z</time>
      </trkpt>
      <trkpt lat="47.23692" lon="-1.71897">
        <ele>55</ele>
        <time>2021-10-09T13:02:30Z</time>
      </trkpt>
      <trkpt lat="47.23672" lon="-1.71972">
        <ele>56.3</ele>
        <time>2021-10-09T13:02:46Z</time>
      </trkpt>
      <trkpt lat="47.23601" lon="-1.72061">
        <ele>53.3</ele>
        <time>2021-10-09T13:03:02Z</time>
      </trkpt>
      <trkpt lat="47.23519" lon="-1.72096">
        <ele>52</ele>
        <time>2021-10-09T13:03:18Z</time>
      </trkpt>
      <trkpt lat="47.23472" lon="-1.72114">
        <ele>53.2</ele>
        <time>2021-10-09T13:03:34Z</time>
      </trkpt>
      <trkpt lat="47.2347" lon="-1.72113">
        <ele>57.2</ele>
        <time>2021-10-09T13:03:50Z</time>
      </trkpt>
      <trkpt lat="47.23464" lon="-1.72116">
        <ele>54.7</ele>
        <time>2021-10-09T13:04:06Z</time>
      </trkpt>
      <trkpt lat="47.23419" lon="-1.72111">
        <ele>58</ele>
        <time>2021-10-09T13:04:22Z</time>
      </trkpt>
      <trkpt lat="47.23401" lon="-1.72034">
        <ele>61.9</ele>
        <time>2021-10-09T13:04:38Z</time>
      </trkpt>
      <trkpt lat="47.23393" lon="-1.71945">
        <ele>59.3</ele>
        <time>2021-10-09T13:04:53Z</time>
      </trkpt>
      <trkpt lat="47.23332" lon="-1.71932">
        <ele>60.1</ele>
        <time>2021-10-09T13:05:08Z</time>
      </trkpt>
      <trkpt lat="47.2326" lon="-1.71934">
        <ele>63</ele>
        <time>2021-10-09T13:05:24Z</time>
      </trkpt>
      <trkpt lat="47.23195" lon="-1.7193">
        <ele>63.4</ele>
        <time>2021-10-09T13:05:40Z</time>
      </trkpt>
      <trkpt lat="47.23185" lon="-1.71861">
        <ele>62.5</ele>
        <time>2021-10-09T13:05:56Z</time>
      </trkpt>
      <trkpt lat="47.23181" lon="-1.71765">
        <ele>64.6</ele>
        <time>2021-10-09T13:06:11Z</time>
      </trkpt>
      <trkpt lat="47.2318" lon="-1.71666">
        <ele>60.6</ele>
        <time>2021-10-09T13:06:26Z</time>
      </trkpt>
      <trkpt lat="47.23176" lon="-1.71549">
        <ele>63.4</ele>
        <time>2021-10-09T13:06:42Z</time>
      </trkpt>
      <trkpt lat="47.23192" lon="-1.71434">
        <ele>58.4</ele>
        <time>2021-10-09T13:06:58Z</time>
      </trkpt>
      <trkpt lat="47.23214" lon="-1.71314">
        <ele>65.7</ele>
        <time>2021-10-09T13:07:14Z</time>
      </trkpt>
      <trkpt lat="47.23249" lon="-1.71204">
        <ele>76.2</ele>
        <time>2021-10-09T13:07:30Z</time>
      </trkpt>
      <trkpt lat="47.23283" lon="-1.71105">
        <ele>76</ele>
        <time>2021-10-09T13:07:45Z</time>
      </trkpt>
      <trkpt lat="47.23312" lon="-1.70999">
        <ele>74.9</ele>
        <time>2021-10-09T13:08:01Z</time>
      </trkpt>
      <trkpt lat="47.23317" lon="-1.70925">
        <ele>77.5</ele>
        <time>2021-10-09T13:08:17Z</time>
      </trkpt>
      <trkpt lat="47.23271" lon="-1.70881">
        <ele>73.7</ele>
        <time>2021-10-09T13:08:33Z</time>
      </trkpt>
      <trkpt lat="47.23238" lon="-1.70803">
        <ele>73.8</ele>
        <time>2021-10-09T13:08:49Z</time>
      </trkpt>
      <trkpt lat="47.23205" lon="-1.70719">
        <ele>75.7</ele>
        <time>2021-10-09T13:09:04Z</time>
      </trkpt>
      <trkpt lat="47.23174" lon="-1.70635">
        <ele>79.3</ele>
        <time>2021-10-09T13:09:19Z</time>
      </trkpt>
      <trkpt lat="47.23158" lon="-1.70595">
        <ele>79.2</ele>
        <time>2021-10-09T13:09:35Z</time>
      </trkpt>
      <trkpt lat="47.23115" lon="-1.70575">
        <ele>75.3</ele>
        <time>2021-10-09T13:09:51Z</time>
      </trkpt>
      <trkpt lat="47.23033" lon="-1.7054">
        <ele>69.2</ele>
        <time>2021-10-09T13:10:07Z</time>
      </trkpt>
      <trkpt lat="47.22953" lon="-1.70496">
        <ele>65.4</ele>
        <time>2021-10-09T13:10:23Z</time>
      </trkpt>
      <trkpt lat="47.22848" lon="-1.70476">
        <ele>61.5</ele>
        <time>2021-10-09T13:10:38Z</time>
      </trkpt>
      <trkpt lat="47.22757" lon="-1.70444">
        <ele>57.8</ele>
        <time>2021-10-09T13:10:54Z</time>
      </trkpt>
      <trkpt lat="47.22747" lon="-1.70438">
        <ele>50.2</ele>
        <time>2021-10-09T13:11:10Z</time>
      </trkpt>
      <trkpt lat="47.22742" lon="-1.70421">
        <ele>47.6</ele>
        <time>2021-10-09T13:11:25Z</time>
      </trkpt>
      <trkpt lat="47.22713" lon="-1.70334">
        <ele>47.7</ele>
        <time>2021-10-09T13:11:41Z</time>
      </trkpt>
      <trkpt lat="47.2263" lon="-1.70321">
        <ele>48.2</ele>
        <time>2021-10-09T13:11:57Z</time>
      </trkpt>
      <trkpt lat="47.22545" lon="-1.70336">
        <ele>49.8</ele>
        <time>2021-10-09T13:12:13Z</time>
      </trkpt>
      <trkpt lat="47.22495" lon="-1.7036">
        <ele>50.6</ele>
        <time>2021-10-09T13:12:29Z</time>
      </trkpt>
      <trkpt lat="47.22461" lon="-1.70394">
        <ele>54.1</ele>
        <time>2021-10-09T13:12:45Z</time>
      </trkpt>
      <trkpt lat="47.22433" lon="-1.70422">
        <ele>59</ele>
        <time>2021-10-09T13:13:00Z</time>
      </trkpt>
      <trkpt lat="47.22413" lon="-1.70453">
        <ele>55.6</ele>
        <time>2021-10-09T13:13:16Z</time>
      </trkpt>
      <trkpt lat="47.2239" lon="-1.70471">
        <ele>59.9</ele>
        <time>2021-10-09T13:13:31Z</time>
      </trkpt>
      <trkpt lat="47.22361" lon="-1.70491">
        <ele>66.6</ele>
        <time>2021-10-09T13:13:46Z</time>
      </trkpt>
      <trkpt lat="47.22339" lon="-1.70519">
        <ele>70.1</ele>
        <time>2021-10-09T13:14:02Z</time>
      </trkpt>
      <trkpt lat="47.2235" lon="-1.70575">
        <ele>71.2</ele>
        <time>2021-10-09T13:14:18Z</time>
      </trkpt>
      <trkpt lat="47.22363" lon="-1.70634">
        <ele>68.5</ele>
        <time>2021-10-09T13:14:34Z</time>
      </trkpt>
      <trkpt lat="47.22367" lon="-1.70691">
        <ele>69.5</ele>
        <time>2021-10-09T13:14:50Z</time>
      </trkpt>
      <trkpt lat="47.22347" lon="-1.70764">
        <ele>72.1</ele>
        <time>2021-10-09T13:15:06Z</time>
      </trkpt>
      <trkpt lat="47.22327" lon="-1.70842">
        <ele>71.4</ele>
        <time>2021-10-09T13:15:22Z</time>
      </trkpt>
      <trkpt lat="47.22272" lon="-1.70911">
        <ele>70.7</ele>
        <time>2021-10-09T13:15:38Z</time>
      </trkpt>
      <trkpt lat="47.22206" lon="-1.70923">
        <ele>66.9</ele>
        <time>2021-10-09T13:15:54Z</time>
      </trkpt>
      <trkpt lat="47.22152" lon="-1.70839">
        <ele>62.1</ele>
        <time>2021-10-09T13:16:10Z</time>
      </trkpt>
      <trkpt lat="47.22122" lon="-1.70719">
        <ele>55.8</ele>
        <time>2021-10-09T13:16:26Z</time>
      </trkpt>
      <trkpt lat="47.22103" lon="-1.70552">
        <ele>50.4</ele>
        <time>2021-10-09T13:16:42Z</time>
      </trkpt>
      <trkpt lat="47.22074" lon="-1.70438">
        <ele>50.4</ele>
        <time>2021-10-09T13:16:58Z</time>
      </trkpt>
      <trkpt lat="47.22042" lon="-1.70301">
        <ele>44.6</ele>
        <time>2021-10-09T13:17:14Z</time>
      </trkpt>
      <trkpt lat="47.22054" lon="-1.70198">
        <ele>40.5</ele>
        <time>2021-10-09T13:17:29Z</time>
      </trkpt>
      <trkpt lat="47.22034" lon="-1.70101">
        <ele>36.8</ele>
        <time>2021-10-09T13:17:45Z</time>
      </trkpt>
      <trkpt lat="47.22011" lon="-1.70012">
        <ele>38.1</ele>
        <time>2021-10-09T13:18:01Z</time>
      </trkpt>
      <trkpt lat="47.22012" lon="-1.69924">
        <ele>43.4</ele>
        <time>2021-10-09T13:18:17Z</time>
      </trkpt>
      <trkpt lat="47.22031" lon="-1.69863">
        <ele>50.8</ele>
        <time>2021-10-09T13:18:33Z</time>
      </trkpt>
      <trkpt lat="47.22049" lon="-1.69794">
        <ele>49.6</ele>
        <time>2021-10-09T13:18:49Z</time>
      </trkpt>
      <trkpt lat="47.2209" lon="-1.69743">
        <ele>44.4</ele>
        <time>2021-10-09T13:19:05Z</time>
      </trkpt>
      <trkpt lat="47.22119" lon="-1.69668">
        <ele>51.4</ele>
        <time>2021-10-09T13:19:21Z</time>
      </trkpt>
      <trkpt lat="47.22126" lon="-1.69595">
        <ele>52.8</ele>
        <time>2021-10-09T13:19:36Z</time>
      </trkpt>
      <trkpt lat="47.22132" lon="-1.69515">
        <ele>54.4</ele>
        <time>2021-10-09T13:19:51Z</time>
      </trkpt>
      <trkpt lat="47.22185" lon="-1.69434">
        <ele>50</ele>
        <time>2021-10-09T13:20:07Z</time>
      </trkpt>
      <trkpt lat="47.2225" lon="-1.69364">
        <ele>47</ele>
        <time>2021-10-09T13:20:22Z</time>
      </trkpt>
      <trkpt lat="47.22308" lon="-1.69351">
        <ele>46.4</ele>
        <time>2021-10-09T13:20:38Z</time>
      </trkpt>
      <trkpt lat="47.22346" lon="-1.69407">
        <ele>44.3</ele>
        <time>2021-10-09T13:20:54Z</time>
      </trkpt>
      <trkpt lat="47.22397" lon="-1.6948">
        <ele>50.2</ele>
        <time>2021-10-09T13:21:09Z</time>
      </trkpt>
      <trkpt lat="47.22447" lon="-1.69575">
        <ele>47.1</ele>
        <time>2021-10-09T13:21:25Z</time>
      </trkpt>
      <trkpt lat="47.225" lon="-1.69644">
        <ele>47</ele>
        <time>2021-10-09T13:21:41Z</time>
      </trkpt>
      <trkpt lat="47.22552" lon="-1.69603">
        <ele>46.1</ele>
        <time>2021-10-09T13:21:57Z</time>
      </trkpt>
      <trkpt lat="47.22595" lon="-1.69549">
        <ele>46.8</ele>
        <time>2021-10-09T13:22:12Z</time>
      </trkpt>
      <trkpt lat="47.22632" lon="-1.69603">
        <ele>44.1</ele>
        <time>2021-10-09T13:22:28Z</time>
      </trkpt>
      <trkpt lat="47.22666" lon="-1.69716">
        <ele>45.7</ele>
        <time>2021-10-09T13:22:43Z</time>
      </trkpt>
      <trkpt lat="47.22674" lon="-1.69841">
        <ele>47.9</ele>
        <time>2021-10-09T13:22:58Z</time>
      </trkpt>
      <trkpt lat="47.227" lon="-1.69911">
        <ele>51.3</ele>
        <time>2021-10-09T13:23:14Z</time>
      </trkpt>
      <trkpt lat="47.22746" lon="-1.69887">
        <ele>42</ele>
        <time>2021-10-09T13:23:29Z</time>
      </trkpt>
      <trkpt lat="47.22793" lon="-1.6984">
        <ele>46</ele>
        <time>2021-10-09T13:23:45Z</time>
      </trkpt>
      <trkpt lat="47.22839" lon="-1.69809">
        <ele>53.4</ele>
        <time>2021-10-09T13:24:00Z</time>
      </trkpt>
      <trkpt lat="47.22874" lon="-1.69782">
        <ele>57</ele>
        <time>2021-10-09T13:24:16Z</time>
      </trkpt>
      <trkpt lat="47.22908" lon="-1.69798">
        <ele>55</ele>
        <time>2021-10-09T13:24:32Z</time>
      </trkpt>
      <trkpt lat="47.22934" lon="-1.69855">
        <ele>56.7</ele>
        <time>2021-10-09T13:24:47Z</time>
      </trkpt>
      <trkpt lat="47.22953" lon="-1.69928">
        <ele>58.3</ele>
        <time>2021-10-09T13:25:02Z</time>
      </trkpt>
      <trkpt lat="47.22981" lon="-1.70004">
        <ele>63.6</ele>
        <time>2021-10-09T13:25:18Z</time>
      </trkpt>
      <trkpt lat="47.23023" lon="-1.70026">
        <ele>64.5</ele>
        <time>2021-10-09T13:25:33Z</time>
      </trkpt>
      <trkpt lat="47.23064" lon="-1.70015">
        <ele>65.8</ele>
        <time>2021-10-09T13:25:49Z</time>
      </trkpt>
      <trkpt lat="47.23106" lon="-1.70005">
        <ele>71.8</ele>
        <time>2021-10-09T13:26:04Z</time>
      </trkpt>
      <trkpt lat="47.23146" lon="-1.69987">
        <ele>76.4</ele>
        <time>2021-10-09T13:26:19Z</time>
      </trkpt>
      <trkpt lat="47.23184" lon="-1.69975">
        <ele>74.3</ele>
        <time>2021-10-09T13:26:34Z</time>
      </trkpt>
      <trkpt lat="47.23234" lon="-1.69957">
        <ele>78.3</ele>
        <time>2021-10-09T13:26:50Z</time>
      </trkpt>
      <trkpt lat="47.23274" lon="-1.69929">
        <ele>75.6</ele>
        <time>2021-10-09T13:27:06Z</time>
      </trkpt>
      <trkpt lat="47.23255" lon="-1.69852">
        <ele>77.8</ele>
        <time>2021-10-09T13:27:22Z</time>
      </trkpt>
      <trkpt lat="47.23256" lon="-1.69787">
        <ele>75.5</ele>
        <time>2021-10-09T13:27:37Z</time>
      </trkpt>
      <trkpt lat="47.23327" lon="-1.69748">
        <ele>75.6</ele>
        <time>2021-10-09T13:27:53Z</time>
      </trkpt>
      <trkpt lat="47.2342" lon="-1.69672">
        <ele>70</ele>
        <time>2021-10-09T13:28:08Z</time>
      </trkpt>
      <trkpt lat="47.23399" lon="-1.69593">
        <ele>69.6</ele>
        <time>2021-10-09T13:28:23Z</time>
      </trkpt>
      <trkpt lat="47.23327" lon="-1.69435">
        <ele>66</ele>
        <time>2021-10-09T13:28:39Z</time>
      </trkpt>
      <trkpt lat="47.23243" lon="-1.69333">
        <ele>57</ele>
        <time>2021-10-09T13:28:55Z</time>
      </trkpt>
      <trkpt lat="47.23223" lon="-1.69271">
        <ele>63</ele>
        <time>2021-10-09T13:29:10Z</time>
      </trkpt>
      <trkpt lat="47.23194" lon="-1.69206">
        <ele>71.4</ele>
        <time>2021-10-09T13:29:26Z</time>
      </trkpt>
      <trkpt lat="47.23161" lon="-1.69159">
        <ele>74</ele>
        <time>2021-10-09T13:29:41Z</time>
      </trkpt>
      <trkpt lat="47.23125" lon="-1.69105">
        <ele>75.2</ele>
        <time>2021-10-09T13:29:56Z</time>
      </trkpt>
      <trkpt lat="47.23089" lon="-1.69036">
        <ele>79.2</ele>
        <time>2021-10-09T13:30:12Z</time>
      </trkpt>
      <trkpt lat="47.23067" lon="-1.68951">
        <ele>85.2</ele>
        <time>2021-10-09T13:30:28Z</time>
      </trkpt>
      <trkpt lat="47.23051" lon="-1.68857">
        <ele>85.5</ele>
        <time>2021-10-09T13:30:43Z</time>
      </trkpt>
      <trkpt lat="47.23012" lon="-1.6877">
        <ele>81.6</ele>
        <time>2021-10-09T13:30:59Z</time>
      </trkpt>
      <trkpt lat="47.22952" lon="-1.68694">
        <ele>80.8</ele>
        <time>2021-10-09T13:31:15Z</time>
      </trkpt>
      <trkpt lat="47.22967" lon="-1.68632">
        <ele>78.9</ele>
        <time>2021-10-09T13:31:30Z</time>
      </trkpt>
      <trkpt lat="47.2301" lon="-1.68574">
        <ele>79</ele>
        <time>2021-10-09T13:31:46Z</time>
      </trkpt>
      <trkpt lat="47.23065" lon="-1.68523">
        <ele>86.6</ele>
        <time>2021-10-09T13:32:02Z</time>
      </trkpt>
      <trkpt lat="47.23114" lon="-1.6847">
        <ele>86.3</ele>
        <time>2021-10-09T13:32:18Z</time>
      </trkpt>
      <trkpt lat="47.23107" lon="-1.68382">
        <ele>88.4</ele>
        <time>2021-10-09T13:32:33Z</time>
      </trkpt>
      <trkpt lat="47.23095" lon="-1.68291">
        <ele>91</ele>
        <time>2021-10-09T13:32:49Z</time>
      </trkpt>
      <trkpt lat="47.23064" lon="-1.68202">
        <ele>86.6</ele>
        <time>2021-10-09T13:33:05Z</time>
      </trkpt>
      <trkpt lat="47.2304" lon="-1.68098">
        <ele>90.3</ele>
        <time>2021-10-09T13:33:21Z</time>
      </trkpt>
      <trkpt lat="47.23025" lon="-1.68009">
        <ele>89</ele>
        <time>2021-10-09T13:33:37Z</time>
      </trkpt>
      <trkpt lat="47.23004" lon="-1.67911">
        <ele>92.8</ele>
        <time>2021-10-09T13:33:53Z</time>
      </trkpt>
      <trkpt lat="47.22968" lon="-1.67838">
        <ele>92.1</ele>
        <time>2021-10-09T13:34:09Z</time>
      </trkpt>
      <trkpt lat="47.22916" lon="-1.67764">
        <ele>90.3</ele>
        <time>2021-10-09T13:34:25Z</time>
      </trkpt>
      <trkpt lat="47.22881" lon="-1.67725">
        <ele>89.8</ele>
        <time>2021-10-09T13:34:41Z</time>
      </trkpt>
      <trkpt lat="47.22833" lon="-1.67664">
        <ele>90.4</ele>
        <time>2021-10-09T13:34:56Z</time>
      </trkpt>
      <trkpt lat="47.22802" lon="-1.67557">
        <ele>86.1</ele>
        <time>2021-10-09T13:35:12Z</time>
      </trkpt>
      <trkpt lat="47.22738" lon="-1.67467">
        <ele>78.8</ele>
        <time>2021-10-09T13:35:28Z</time>
      </trkpt>
      <trkpt lat="47.22632" lon="-1.67411">
        <ele>73.5</ele>
        <time>2021-10-09T13:35:43Z</time>
      </trkpt>
      <trkpt lat="47.22541" lon="-1.67416">
        <ele>69.8</ele>
        <time>2021-10-09T13:35:59Z</time>
      </trkpt>
      <trkpt lat="47.22486" lon="-1.67407">
        <ele>71</ele>
        <time>2021-10-09T13:36:15Z</time>
      </trkpt>
      <trkpt lat="47.22405" lon="-1.67434">
        <ele>71.5</ele>
        <time>2021-10-09T13:36:30Z</time>
      </trkpt>
      <trkpt lat="47.22286" lon="-1.67465">
        <ele>63.3</ele>
        <time>2021-10-09T13:36:46Z</time>
      </trkpt>
      <trkpt lat="47.22192" lon="-1.67433">
        <ele>59</ele>
        <time>2021-10-09T13:37:02Z</time>
      </trkpt>
      <trkpt lat="47.22137" lon="-1.67445">
        <ele>61.3</ele>
        <time>2021-10-09T13:37:17Z</time>
      </trkpt>
      <trkpt lat="47.22076" lon="-1.67456">
        <ele>57.2</ele>
        <time>2021-10-09T13:37:32Z</time>
      </trkpt>
      <trkpt lat="47.22023" lon="-1.67468">
        <ele>61.8</ele>
        <time>2021-10-09T13:37:47Z</time>
      </trkpt>
      <trkpt lat="47.21984" lon="-1.67479">
        <ele>64.4</ele>
        <time>2021-10-09T13:38:03Z</time>
      </trkpt>
      <trkpt lat="47.21967" lon="-1.67483">
        <ele>67.1</ele>
        <time>2021-10-09T13:38:18Z</time>
      </trkpt>
      <trkpt lat="47.21926" lon="-1.67485">
        <ele>63.7</ele>
        <time>2021-10-09T13:38:34Z</time>
      </trkpt>
      <trkpt lat="47.21884" lon="-1.67513">
        <ele>57.7</ele>
        <time>2021-10-09T13:38:50Z</time>
      </trkpt>
      <trkpt lat="47.21879" lon="-1.67471">
        <ele>58.9</ele>
        <time>2021-10-09T13:39:06Z</time>
      </trkpt>
      <trkpt lat="47.2184" lon="-1.67484">
        <ele>55.1</ele>
        <time>2021-10-09T13:39:22Z</time>
      </trkpt>
      <trkpt lat="47.21812" lon="-1.67476">
        <ele>54.4</ele>
        <time>2021-10-09T13:39:38Z</time>
      </trkpt>
      <trkpt lat="47.21782" lon="-1.67456">
        <ele>51.3</ele>
        <time>2021-10-09T13:39:53Z</time>
      </trkpt>
      <trkpt lat="47.21735" lon="-1.67421">
        <ele>49.9</ele>
        <time>2021-10-09T13:40:09Z</time>
      </trkpt>
      <trkpt lat="47.21727" lon="-1.67363">
        <ele>55.1</ele>
        <time>2021-10-09T13:40:25Z</time>
      </trkpt>
      <trkpt lat="47.2175" lon="-1.67345">
        <ele>55.3</ele>
        <time>2021-10-09T13:40:41Z</time>
      </trkpt>
      <trkpt lat="47.21769" lon="-1.67301">
        <ele>58.8</ele>
        <time>2021-10-09T13:40:57Z</time>
      </trkpt>
      <trkpt lat="47.21799" lon="-1.67282">
        <ele>63.2</ele>
        <time>2021-10-09T13:41:12Z</time>
      </trkpt>
      <trkpt lat="47.2179" lon="-1.67221">
        <ele>63.3</ele>
        <time>2021-10-09T13:41:28Z</time>
      </trkpt>
      <trkpt lat="47.21776" lon="-1.67156">
        <ele>62.9</ele>
        <time>2021-10-09T13:41:44Z</time>
      </trkpt>
      <trkpt lat="47.2177" lon="-1.67084">
        <ele>62.2</ele>
        <time>2021-10-09T13:42:00Z</time>
      </trkpt>
      <trkpt lat="47.2177" lon="-1.66995">
        <ele>61.9</ele>
        <time>2021-10-09T13:42:15Z</time>
      </trkpt>
      <trkpt lat="47.21801" lon="-1.66947">
        <ele>64.8</ele>
        <time>2021-10-09T13:42:31Z</time>
      </trkpt>
      <trkpt lat="47.21847" lon="-1.66879">
        <ele>74.5</ele>
        <time>2021-10-09T13:42:46Z</time>
      </trkpt>
      <trkpt lat="47.21878" lon="-1.66832">
        <ele>80.7</ele>
        <time>2021-10-09T13:43:02Z</time>
      </trkpt>
      <trkpt lat="47.21908" lon="-1.66793">
        <ele>81.2</ele>
        <time>2021-10-09T13:43:17Z</time>
      </trkpt>
      <trkpt lat="47.21877" lon="-1.66722">
        <ele>81.7</ele>
        <time>2021-10-09T13:43:33Z</time>
      </trkpt>
      <trkpt lat="47.21812" lon="-1.66627">
        <ele>78.1</ele>
        <time>2021-10-09T13:43:49Z</time>
      </trkpt>
      <trkpt lat="47.21779" lon="-1.6655">
        <ele>78.3</ele>
        <time>2021-10-09T13:44:05Z</time>
      </trkpt>
      <trkpt lat="47.21817" lon="-1.66472">
        <ele>71</ele>
        <time>2021-10-09T13:44:20Z</time>
      </trkpt>
      <trkpt lat="47.21813" lon="-1.66405">
        <ele>69.7</ele>
        <time>2021-10-09T13:44:35Z</time>
      </trkpt>
      <trkpt lat="47.21849" lon="-1.66358">
        <ele>76.9</ele>
        <time>2021-10-09T13:44:51Z</time>
      </trkpt>
      <trkpt lat="47.21877" lon="-1.66328">
        <ele>74.1</ele>
        <time>2021-10-09T13:45:06Z</time>
      </trkpt>
      <trkpt lat="47.21915" lon="-1.66255">
        <ele>73.8</ele>
        <time>2021-10-09T13:45:22Z</time>
      </trkpt>
      <trkpt lat="47.21953" lon="-1.66183">
        <ele>70.7</ele>
        <time>2021-10-09T13:45:38Z</time>
      </trkpt>
      <trkpt lat="47.21976" lon="-1.66133">
        <ele>69.4</ele>
        <time>2021-10-09T13:45:54Z</time>
      </trkpt>
      <trkpt lat="47.22009" lon="-1.6608">
        <ele>67.3</ele>
        <time>2021-10-09T13:46:10Z</time>
      </trkpt>
      <trkpt lat="47.22062" lon="-1.66058">
        <ele>69.6</ele>
        <time>2021-10-09T13:46:25Z</time>
      </trkpt>
      <trkpt lat="47.22072" lon="-1.66033">
        <ele>73.9</ele>
        <time>2021-10-09T13:46:41Z</time>
      </trkpt>
      <trkpt lat="47.22091" lon="-1.66028">
        <ele>75.5</ele>
        <time>2021-10-09T13:46:57Z</time>
      </trkpt>
      <trkpt lat="47.2214" lon="-1.65988">
        <ele>71.9</ele>
        <time>2021-10-09T13:47:12Z</time>
      </trkpt>
      <trkpt lat="47.22173" lon="-1.65948">
        <ele>71.5</ele>
        <time>2021-10-09T13:47:27Z</time>
      </trkpt>
      <trkpt lat="47.22213" lon="-1.65912">
        <ele>70.5</ele>
        <time>2021-10-09T13:47:43Z</time>
      </trkpt>
      <trkpt lat="47.22227" lon="-1.65867">
        <ele>80.6</ele>
        <time>2021-10-09T13:47:59Z</time>
      </trkpt>
      <trkpt lat="47.22228" lon="-1.65867">
        <ele>82.2</ele>
        <time>2021-10-09T13:48:15Z</time>
      </trkpt>
      <trkpt lat="47.22232" lon="-1.65864">
        <ele>83</ele>
        <time>2021-10-09T13:48:31Z</time>
      </trkpt>
      <trkpt lat="47.22271" lon="-1.6586">
        <ele>80</ele>
        <time>2021-10-09T13:48:47Z</time>
      </trkpt>
      <trkpt lat="47.22299" lon="-1.65816">
        <ele>81.3</ele>
        <time>2021-10-09T13:49:03Z</time>
      </trkpt>
      <trkpt lat="47.22324" lon="-1.65759">
        <ele>79</ele>
        <time>2021-10-09T13:49:19Z</time>
      </trkpt>
      <trkpt lat="47.22339" lon="-1.65713">
        <ele>81.1</ele>
        <time>2021-10-09T13:49:34Z</time>
      </trkpt>
      <trkpt lat="47.22372" lon="-1.65665">
        <ele>82.1</ele>
        <time>2021-10-09T13:49:50Z</time>
      </trkpt>
      <trkpt lat="47.22428" lon="-1.65649">
        <ele>83.4</ele>
        <time>2021-10-09T13:50:06Z</time>
      </trkpt>
      <trkpt lat="47.22486" lon="-1.65647">
        <ele>83.5</ele>
        <time>2021-10-09T13:50:22Z</time>
      </trkpt>
      <trkpt lat="47.22544" lon="-1.6563">
        <ele>90.9</ele>
        <time>2021-10-09T13:50:38Z</time>
      </trkpt>
      <trkpt lat="47.22589" lon="-1.65618">
        <ele>87.4</ele>
        <time>2021-10-09T13:50:53Z</time>
      </trkpt>
      <trkpt lat="47.2263" lon="-1.65588">
        <ele>85.7</ele>
        <time>2021-10-09T13:51:08Z</time>
      </trkpt>
      <trkpt lat="47.2266" lon="-1.65539">
        <ele>89.3</ele>
        <time>2021-10-09T13:51:23Z</time>
      </trkpt>
      <trkpt lat="47.22649" lon="-1.65477">
        <ele>88</ele>
        <time>2021-10-09T13:51:39Z</time>
      </trkpt>
      <trkpt lat="47.22631" lon="-1.65392">
        <ele>95</ele>
        <time>2021-10-09T13:51:55Z</time>
      </trkpt>
      <trkpt lat="47.226" lon="-1.65323">
        <ele>96.8</ele>
        <time>2021-10-09T13:52:10Z</time>
      </trkpt>
      <trkpt lat="47.22598" lon="-1.65233">
        <ele>97.1</ele>
        <time>2021-10-09T13:52:25Z</time>
      </trkpt>
      <trkpt lat="47.22643" lon="-1.65202">
        <ele>93.8</ele>
        <time>2021-10-09T13:52:41Z</time>
      </trkpt>
      <trkpt lat="47.22577" lon="-1.6524">
        <ele>92</ele>
        <time>2021-10-09T13:52:57Z</time>
      </trkpt>
      <trkpt lat="47.22487" lon="-1.65283">
        <ele>91.7</ele>
        <time>2021-10-09T13:53:12Z</time>
      </trkpt>
      <trkpt lat="47.22389" lon="-1.65335">
        <ele>88.9</ele>
        <time>2021-10-09T13:53:27Z</time>
      </trkpt>
      <trkpt lat="47.2228" lon="-1.65387">
        <ele>89.2</ele>
        <time>2021-10-09T13:53:43Z</time>
      </trkpt>
      <trkpt lat="47.2217" lon="-1.65448">
        <ele>84</ele>
        <time>2021-10-09T13:53:59Z</time>
      </trkpt>
      <trkpt lat="47.22082" lon="-1.65509">
        <ele>84.2</ele>
        <time>2021-10-09T13:54:14Z</time>
      </trkpt>
      <trkpt lat="47.22036" lon="-1.65531">
        <ele>79.2</ele>
        <time>2021-10-09T13:54:30Z</time>
      </trkpt>
      <trkpt lat="47.21982" lon="-1.65456">
        <ele>78.1</ele>
        <time>2021-10-09T13:54:46Z</time>
      </trkpt>
      <trkpt lat="47.21919" lon="-1.65447">
        <ele>78.6</ele>
        <time>2021-10-09T13:55:01Z</time>
      </trkpt>
      <trkpt lat="47.21838" lon="-1.65453">
        <ele>79.3</ele>
        <time>2021-10-09T13:55:16Z</time>
      </trkpt>
      <trkpt lat="47.21713" lon="-1.65468">
        <ele>76.8</ele>
        <time>2021-10-09T13:55:32Z</time>
      </trkpt>
      <trkpt lat="47.2161" lon="-1.65544">
        <ele>76.8</ele>
        <time>2021-10-09T13:55:48Z</time>
      </trkpt>
      <trkpt lat="47.21512" lon="-1.656">
        <ele>75.1</ele>
        <time>2021-10-09T13:56:04Z</time>
      </trkpt>
      <trkpt lat="47.21429" lon="-1.6567">
        <ele>74.8</ele>
        <time>2021-10-09T13:56:20Z</time>
      </trkpt>
      <trkpt lat="47.21373" lon="-1.65739">
        <ele>74.9</ele>
        <time>2021-10-09T13:56:36Z</time>
      </trkpt>
      <trkpt lat="47.21336" lon="-1.65782">
        <ele>77.6</ele>
        <time>2021-10-09T13:56:52Z</time>
      </trkpt>
      <trkpt lat="47.21285" lon="-1.65844">
        <ele>76.5</ele>
        <time>2021-10-09T13:57:07Z</time>
      </trkpt>
      <trkpt lat="47.21256" lon="-1.65802">
        <ele>78.3</ele>
        <time>2021-10-09T13:57:23Z</time>
      </trkpt>
      <trkpt lat="47.21268" lon="-1.65737">
        <ele>75.3</ele>
        <time>2021-10-09T13:57:39Z</time>
      </trkpt>
      <trkpt lat="47.21311" lon="-1.65705">
        <ele>73.9</ele>
        <time>2021-10-09T13:57:55Z</time>
      </trkpt>
      <trkpt lat="47.21345" lon="-1.65692">
        <ele>75.5</ele>
        <time>2021-10-09T13:58:10Z</time>
      </trkpt>
      <trkpt lat="47.21343" lon="-1.65691">
        <ele>75.6</ele>
        <time>2021-10-09T13:58:25Z</time>
      </trkpt>
    </trkseg>
  </trk>
</gpx>